Jacksonville, Maryland
Current Conditions -  °F | °C
As of 3:51 AM on Thursday 23 Oct 2014 (Local Time) from KMTN Reporting Station
Overcast Overcast  
Wind Chill: 12°   Ceiling: 3300
Heat Index: 12°   Visibility: 10mi
Dew Point:   Wind: 15mph
Humidity: 77%   Direction: 290°WNW
Pressure: 29.84"   Gusts: 22mph
Location:  39.5027°N, 76.5721°W
Report Text: KMTN 230751Z AUTO 29013G19KT 10SM BKN033 OVC043 12/08 A2984 RMK AO2
Loading
Personal Weather Stations






























Interactive Weather Map
Tropical Storm Tracking
New forecast layout! Learn more

10-Day Weather Forecast

Advertisements
Track Severe Weather on mobile